SBRJSBIL

Guest
Details From SBRJ - Santos-Dumont
To SBIL - Ilheus
Flight Number -
Tags decoded
Created
Modified
Stats Distance 579 nm / 1,072 km
Max Altitude 0 ft / 0 m
Waypoints 5
Social Downloads 1
Likes 0
Share VATSIM

Download

Looking for another format? Having issues loading an existing format? Contact us
Advertisement - Login to hide

Notes

Requested: SBRJ ADA W6 VTR W33 RAIRA SBIL Unmatched points: W6 W33

Route

SBRJ ADA VTR RAIRA SBIL

ID Type Via Altitude Latitude Longitude Leg Dist Tot Dist Heading (true) Name
O SBRJ APT - 0 ft / 0 m -22.91046˚ -43.16313˚ - 0 nm - Santos-Dumont
ADA NDB - 0 ft / 0 m -22.82296˚ -42.09649˚ 59 nm 59 nm 85° / 85° ALDEIA NDB
VTR VOR - 0 ft / 0 m -20.24967˚ -40.28300˚ 184 nm 244 nm 34° / 33° VITORIA VOR-DME
RAIRA FIX - 0 ft / 0 m -15.63000˚ -39.09917˚ 285 nm 529 nm 14° / 14° -
O SBIL APT - 0 ft / 0 m -14.81596˚ -39.03320˚ 49 nm 578 nm 4° / 4° Ilheus

Altitude Profile

Advertisement - Login to hide

Weather


0- 5 10 15 20 25 30 35+ Temperature / ° C

Clouds and Precipitation
Forecast for 2018-05-22 12:00 UTC. Updated an hour ago

Ground ~20,000 ft ~40,000 ft Winds

SBRJ

Details ICAO SBRJ (SDU)
Name Santos-Dumont
Region Brazil
Timezone Unknown (UTC+0.0)
Stats Elevation 11 ft / 3 m (AMSL)
Location -22.910460° -43.163133°
Runways 2
Magnetic Variation 22.825° W

METAR

SBRJ 221200Z 36004KT 6000 NSC 21/16 Q1020

Decode

TAF

TAF SBRJ 220300Z 2206/2218 34005KT CAVOK TN15/2208Z TX27/2217Z PROB40 2209/2212 4000 BR NSC TEMPO 2211/1115 03005KT BECMG 2215/2217 16010KT FEW025 RMK PGU

Decode

Departure Runways

ID Width Length Bearing (true) Bearing (mag) Surface Threshold Offset Overrun Length
02L 98 ft / 30 m 4,154 ft / 1,266 m 358.02° 20.84° Asphalt 0 ft / 0 m 80 ft / 24 m
02R 138 ft / 42 m 4,361 ft / 1,329 m 358.01° 20.83° Asphalt 0 ft / 0 m 80 ft / 24 m
20L 138 ft / 42 m 4,361 ft / 1,329 m 178.01° 200.83° Asphalt 0 ft / 0 m 80 ft / 24 m
20R 98 ft / 30 m 4,154 ft / 1,266 m 178.02° 200.84° Asphalt 0 ft / 0 m 95 ft / 29 m

SBIL

Details ICAO SBIL (IOS)
Name Ilheus
Region Brazil
Timezone America/Bahia (UTC-3.0)
Stats Elevation 15 ft / 5 m (AMSL)
Location -14.815964° -39.033197°
Runways 1
Magnetic Variation 23.700° W

METAR

SBIL 221100Z 20006KT 9999 FEW020 FEW025TCU BKN070 26/23 Q1018

Decode

TAF

TAF SBIL 220300Z 2206/2218 26004KT 9000 SCT020 TN23/2207Z TX30/2216Z PROB30 TEMPO 2206/2210 7000 SHRA SCT015 SCT020 BECMG 2211/2212 11008KT RMK PCN

Decode

Destination Runways

ID Width Length Bearing (true) Bearing (mag) Surface Threshold Offset Overrun Length
11 148 ft / 45 m 5,127 ft / 1,563 m 88.35° 112.05° Asphalt 0 ft / 0 m 190 ft / 58 m
29 148 ft / 45 m 5,127 ft / 1,563 m 268.34° 292.04° Asphalt 0 ft / 0 m 160 ft / 49 m

Popular Alternatives